<?xml version="1.0" encoding="UTF-8"?>
<gpx creator="Wikiloc - http://www.wikiloc.com" version="1.1" xmlns="http://www.topografix.com/GPX/1/1" xmlns:xsi="http://www.w3.org/2001/XMLSchema-instance" xsi:schemaLocation="http://www.topografix.com/GPX/1/1 http://www.topografix.com/GPX/1/1/gpx.xsd">
  <trk>
    <name>Cronoescalada a l'Erola 2013</name>
    <cmt>Track de la cronoescalada a l'Erola 2013</cmt>
    <desc>Track de la cronoescalada a l'Erola 2013</desc>
    <trkseg>
      <trkpt lat="41.693448" lon="2.710373">
        <ele>40.2</ele>
        <time>2013-10-29T10:56:41Z</time>
      </trkpt>
      <trkpt lat="41.693365" lon="2.710404">
        <ele>40.2</ele>
        <time>2013-10-29T10:56:43Z</time>
      </trkpt>
      <trkpt lat="41.693160" lon="2.710211">
        <ele>40.2</ele>
        <time>2013-10-29T10:56:47Z</time>
      </trkpt>
      <trkpt lat="41.693110" lon="2.710133">
        <ele>40.2</ele>
        <time>2013-10-29T10:56:48Z</time>
      </trkpt>
      <trkpt lat="41.692900" lon="2.709772">
        <ele>40.2</ele>
        <time>2013-10-29T10:56:52Z</time>
      </trkpt>
      <trkpt lat="41.692838" lon="2.709685">
        <ele>40.2</ele>
        <time>2013-10-29T10:56:53Z</time>
      </trkpt>
      <trkpt lat="41.692631" lon="2.709422">
        <ele>40.2</ele>
        <time>2013-10-29T10:56:56Z</time>
      </trkpt>
      <trkpt lat="41.692572" lon="2.709327">
        <ele>40.2</ele>
        <time>2013-10-29T10:56:57Z</time>
      </trkpt>
      <trkpt lat="41.692478" lon="2.709093">
        <ele>40.2</ele>
        <time>2013-10-29T10:56:59Z</time>
      </trkpt>
      <trkpt lat="41.692446" lon="2.708968">
        <ele>40.2</ele>
        <time>2013-10-29T10:57:00Z</time>
      </trkpt>
      <trkpt lat="41.692283" lon="2.708683">
        <ele>40.2</ele>
        <time>2013-10-29T10:57:03Z</time>
      </trkpt>
      <trkpt lat="41.692108" lon="2.708625">
        <ele>40.2</ele>
        <time>2013-10-29T10:57:05Z</time>
      </trkpt>
      <trkpt lat="41.691920" lon="2.708621">
        <ele>40.2</ele>
        <time>2013-10-29T10:57:07Z</time>
      </trkpt>
      <trkpt lat="41.691825" lon="2.708613">
        <ele>40.2</ele>
        <time>2013-10-29T10:57:08Z</time>
      </trkpt>
      <trkpt lat="41.691632" lon="2.708574">
        <ele>39.8</ele>
        <time>2013-10-29T10:57:10Z</time>
      </trkpt>
      <trkpt lat="41.691536" lon="2.708538">
        <ele>39.6</ele>
        <time>2013-10-29T10:57:11Z</time>
      </trkpt>
      <trkpt lat="41.691337" lon="2.708423">
        <ele>39.2</ele>
        <time>2013-10-29T10:57:13Z</time>
      </trkpt>
      <trkpt lat="41.691155" lon="2.708250">
        <ele>39.0</ele>
        <time>2013-10-29T10:57:15Z</time>
      </trkpt>
      <trkpt lat="41.691075" lon="2.708151">
        <ele>39.0</ele>
        <time>2013-10-29T10:57:16Z</time>
      </trkpt>
      <trkpt lat="41.691026" lon="2.708005">
        <ele>38.8</ele>
        <time>2013-10-29T10:57:17Z</time>
      </trkpt>
      <trkpt lat="41.690941" lon="2.707732">
        <ele>38.6</ele>
        <time>2013-10-29T10:57:19Z</time>
      </trkpt>
      <trkpt lat="41.690875" lon="2.707471">
        <ele>38.2</ele>
        <time>2013-10-29T10:57:21Z</time>
      </trkpt>
      <trkpt lat="41.690820" lon="2.707224">
        <ele>37.8</ele>
        <time>2013-10-29T10:57:23Z</time>
      </trkpt>
      <trkpt lat="41.690799" lon="2.707075">
        <ele>37.6</ele>
        <time>2013-10-29T10:57:24Z</time>
      </trkpt>
      <trkpt lat="41.690767" lon="2.706817">
        <ele>37.2</ele>
        <time>2013-10-29T10:57:26Z</time>
      </trkpt>
      <trkpt lat="41.690749" lon="2.706567">
        <ele>36.8</ele>
        <time>2013-10-29T10:57:28Z</time>
      </trkpt>
      <trkpt lat="41.690740" lon="2.706325">
        <ele>36.2</ele>
        <time>2013-10-29T10:57:30Z</time>
      </trkpt>
      <trkpt lat="41.690733" lon="2.705970">
        <ele>35.6</ele>
        <time>2013-10-29T10:57:33Z</time>
      </trkpt>
      <trkpt lat="41.690704" lon="2.705630">
        <ele>35.0</ele>
        <time>2013-10-29T10:57:36Z</time>
      </trkpt>
      <trkpt lat="41.690637" lon="2.705336">
        <ele>34.8</ele>
        <time>2013-10-29T10:57:39Z</time>
      </trkpt>
      <trkpt lat="41.690532" lon="2.705057">
        <ele>34.4</ele>
        <time>2013-10-29T10:57:42Z</time>
      </trkpt>
      <trkpt lat="41.690485" lon="2.704971">
        <ele>34.4</ele>
        <time>2013-10-29T10:57:43Z</time>
      </trkpt>
      <trkpt lat="41.690293" lon="2.704780">
        <ele>34.2</ele>
        <time>2013-10-29T10:57:46Z</time>
      </trkpt>
      <trkpt lat="41.690129" lon="2.704718">
        <ele>34.2</ele>
        <time>2013-10-29T10:57:48Z</time>
      </trkpt>
      <trkpt lat="41.689792" lon="2.704648">
        <ele>34.0</ele>
        <time>2013-10-29T10:57:52Z</time>
      </trkpt>
      <trkpt lat="41.689543" lon="2.704611">
        <ele>34.0</ele>
        <time>2013-10-29T10:57:55Z</time>
      </trkpt>
      <trkpt lat="41.689386" lon="2.704584">
        <ele>34.0</ele>
        <time>2013-10-29T10:57:57Z</time>
      </trkpt>
      <trkpt lat="41.689125" lon="2.704453">
        <ele>33.8</ele>
        <time>2013-10-29T10:58:01Z</time>
      </trkpt>
      <trkpt lat="41.689023" lon="2.704337">
        <ele>33.8</ele>
        <time>2013-10-29T10:58:03Z</time>
      </trkpt>
      <trkpt lat="41.688898" lon="2.704135">
        <ele>33.8</ele>
        <time>2013-10-29T10:58:06Z</time>
      </trkpt>
      <trkpt lat="41.688796" lon="2.703825">
        <ele>33.8</ele>
        <time>2013-10-29T10:58:10Z</time>
      </trkpt>
      <trkpt lat="41.688784" lon="2.703743">
        <ele>33.8</ele>
        <time>2013-10-29T10:58:11Z</time>
      </trkpt>
      <trkpt lat="41.688762" lon="2.703400">
        <ele>33.8</ele>
        <time>2013-10-29T10:58:15Z</time>
      </trkpt>
      <trkpt lat="41.688751" lon="2.703133">
        <ele>33.8</ele>
        <time>2013-10-29T10:58:18Z</time>
      </trkpt>
      <trkpt lat="41.688718" lon="2.702872">
        <ele>33.8</ele>
        <time>2013-10-29T10:58:21Z</time>
      </trkpt>
      <trkpt lat="41.688680" lon="2.702619">
        <ele>33.8</ele>
        <time>2013-10-29T10:58:24Z</time>
      </trkpt>
      <trkpt lat="41.688627" lon="2.702350">
        <ele>33.8</ele>
        <time>2013-10-29T10:58:27Z</time>
      </trkpt>
      <trkpt lat="41.688560" lon="2.702078">
        <ele>33.8</ele>
        <time>2013-10-29T10:58:30Z</time>
      </trkpt>
      <trkpt lat="41.688538" lon="2.701983">
        <ele>33.8</ele>
        <time>2013-10-29T10:58:31Z</time>
      </trkpt>
      <trkpt lat="41.688496" lon="2.701783">
        <ele>34.0</ele>
        <time>2013-10-29T10:58:33Z</time>
      </trkpt>
      <trkpt lat="41.688430" lon="2.701466">
        <ele>34.4</ele>
        <time>2013-10-29T10:58:36Z</time>
      </trkpt>
      <trkpt lat="41.688376" lon="2.701169">
        <ele>34.8</ele>
        <time>2013-10-29T10:58:39Z</time>
      </trkpt>
      <trkpt lat="41.688322" lon="2.700875">
        <ele>35.2</ele>
        <time>2013-10-29T10:58:42Z</time>
      </trkpt>
      <trkpt lat="41.688238" lon="2.700612">
        <ele>35.4</ele>
        <time>2013-10-29T10:58:45Z</time>
      </trkpt>
      <trkpt lat="41.688130" lon="2.700386">
        <ele>35.8</ele>
        <time>2013-10-29T10:58:48Z</time>
      </trkpt>
      <trkpt lat="41.688024" lon="2.700178">
        <ele>36.4</ele>
        <time>2013-10-29T10:58:51Z</time>
      </trkpt>
      <trkpt lat="41.687901" lon="2.699908">
        <ele>36.8</ele>
        <time>2013-10-29T10:58:55Z</time>
      </trkpt>
      <trkpt lat="41.687811" lon="2.699621">
        <ele>37.8</ele>
        <time>2013-10-29T10:58:59Z</time>
      </trkpt>
      <trkpt lat="41.687756" lon="2.699409">
        <ele>38.4</ele>
        <time>2013-10-29T10:59:02Z</time>
      </trkpt>
      <trkpt lat="41.687638" lon="2.699055">
        <ele>39.6</ele>
        <time>2013-10-29T10:59:07Z</time>
      </trkpt>
      <trkpt lat="41.687529" lon="2.698778">
        <ele>40.4</ele>
        <time>2013-10-29T10:59:11Z</time>
      </trkpt>
      <trkpt lat="41.687453" lon="2.698547">
        <ele>41.2</ele>
        <time>2013-10-29T10:59:14Z</time>
      </trkpt>
      <trkpt lat="41.687431" lon="2.698467">
        <ele>41.4</ele>
        <time>2013-10-29T10:59:15Z</time>
      </trkpt>
      <trkpt lat="41.687412" lon="2.698389">
        <ele>41.8</ele>
        <time>2013-10-29T10:59:16Z</time>
      </trkpt>
      <trkpt lat="41.687403" lon="2.697998">
        <ele>42.6</ele>
        <time>2013-10-29T10:59:20Z</time>
      </trkpt>
      <trkpt lat="41.687426" lon="2.697691">
        <ele>43.0</ele>
        <time>2013-10-29T10:59:23Z</time>
      </trkpt>
      <trkpt lat="41.687457" lon="2.697376">
        <ele>43.4</ele>
        <time>2013-10-29T10:59:26Z</time>
      </trkpt>
      <trkpt lat="41.687488" lon="2.697073">
        <ele>43.8</ele>
        <time>2013-10-29T10:59:29Z</time>
      </trkpt>
      <trkpt lat="41.687521" lon="2.696778">
        <ele>44.4</ele>
        <time>2013-10-29T10:59:32Z</time>
      </trkpt>
      <trkpt lat="41.687550" lon="2.696490">
        <ele>45.0</ele>
        <time>2013-10-29T10:59:35Z</time>
      </trkpt>
      <trkpt lat="41.687571" lon="2.696204">
        <ele>45.2</ele>
        <time>2013-10-29T10:59:38Z</time>
      </trkpt>
      <trkpt lat="41.687583" lon="2.695923">
        <ele>46.0</ele>
        <time>2013-10-29T10:59:41Z</time>
      </trkpt>
      <trkpt lat="41.687595" lon="2.695642">
        <ele>46.6</ele>
        <time>2013-10-29T10:59:44Z</time>
      </trkpt>
      <trkpt lat="41.687613" lon="2.695361">
        <ele>47.0</ele>
        <time>2013-10-29T10:59:47Z</time>
      </trkpt>
      <trkpt lat="41.687610" lon="2.695083">
        <ele>47.8</ele>
        <time>2013-10-29T10:59:50Z</time>
      </trkpt>
      <trkpt lat="41.687602" lon="2.694904">
        <ele>48.4</ele>
        <time>2013-10-29T10:59:52Z</time>
      </trkpt>
      <trkpt lat="41.687569" lon="2.694566">
        <ele>49.2</ele>
        <time>2013-10-29T10:59:56Z</time>
      </trkpt>
      <trkpt lat="41.687550" lon="2.694323">
        <ele>50.0</ele>
        <time>2013-10-29T10:59:59Z</time>
      </trkpt>
      <trkpt lat="41.687544" lon="2.694075">
        <ele>50.8</ele>
        <time>2013-10-29T11:00:02Z</time>
      </trkpt>
      <trkpt lat="41.687555" lon="2.693830">
        <ele>51.2</ele>
        <time>2013-10-29T11:00:05Z</time>
      </trkpt>
      <trkpt lat="41.687570" lon="2.693581">
        <ele>51.6</ele>
        <time>2013-10-29T11:00:08Z</time>
      </trkpt>
      <trkpt lat="41.687577" lon="2.693319">
        <ele>52.4</ele>
        <time>2013-10-29T11:00:11Z</time>
      </trkpt>
      <trkpt lat="41.687567" lon="2.693036">
        <ele>53.0</ele>
        <time>2013-10-29T11:00:14Z</time>
      </trkpt>
      <trkpt lat="41.687551" lon="2.692740">
        <ele>53.6</ele>
        <time>2013-10-29T11:00:17Z</time>
      </trkpt>
      <trkpt lat="41.687519" lon="2.692329">
        <ele>54.0</ele>
        <time>2013-10-29T11:00:21Z</time>
      </trkpt>
      <trkpt lat="41.687476" lon="2.692008">
        <ele>54.2</ele>
        <time>2013-10-29T11:00:24Z</time>
      </trkpt>
      <trkpt lat="41.687444" lon="2.691786">
        <ele>54.2</ele>
        <time>2013-10-29T11:00:26Z</time>
      </trkpt>
      <trkpt lat="41.687396" lon="2.691339">
        <ele>54.4</ele>
        <time>2013-10-29T11:00:30Z</time>
      </trkpt>
      <trkpt lat="41.687365" lon="2.691014">
        <ele>54.4</ele>
        <time>2013-10-29T11:00:33Z</time>
      </trkpt>
      <trkpt lat="41.687339" lon="2.690699">
        <ele>54.6</ele>
        <time>2013-10-29T11:00:36Z</time>
      </trkpt>
      <trkpt lat="41.687317" lon="2.690420">
        <ele>54.6</ele>
        <time>2013-10-29T11:00:39Z</time>
      </trkpt>
      <trkpt lat="41.687309" lon="2.690332">
        <ele>54.6</ele>
        <time>2013-10-29T11:00:40Z</time>
      </trkpt>
      <trkpt lat="41.687292" lon="2.690162">
        <ele>54.6</ele>
        <time>2013-10-29T11:00:42Z</time>
      </trkpt>
      <trkpt lat="41.687274" lon="2.690000">
        <ele>54.6</ele>
        <time>2013-10-29T11:00:44Z</time>
      </trkpt>
      <trkpt lat="41.687142" lon="2.689664">
        <ele>55.4</ele>
        <time>2013-10-29T11:00:49Z</time>
      </trkpt>
      <trkpt lat="41.687047" lon="2.689575">
        <ele>55.6</ele>
        <time>2013-10-29T11:00:51Z</time>
      </trkpt>
      <trkpt lat="41.686842" lon="2.689414">
        <ele>56.0</ele>
        <time>2013-10-29T11:00:55Z</time>
      </trkpt>
      <trkpt lat="41.686644" lon="2.689249">
        <ele>56.2</ele>
        <time>2013-10-29T11:00:59Z</time>
      </trkpt>
      <trkpt lat="41.686596" lon="2.689224">
        <ele>56.4</ele>
        <time>2013-10-29T11:01:00Z</time>
      </trkpt>
      <trkpt lat="41.686377" lon="2.689156">
        <ele>56.6</ele>
        <time>2013-10-29T11:01:04Z</time>
      </trkpt>
      <trkpt lat="41.686177" lon="2.689076">
        <ele>57.2</ele>
        <time>2013-10-29T11:01:07Z</time>
      </trkpt>
      <trkpt lat="41.685943" lon="2.689013">
        <ele>57.6</ele>
        <time>2013-10-29T11:01:10Z</time>
      </trkpt>
      <trkpt lat="41.685699" lon="2.688995">
        <ele>58.0</ele>
        <time>2013-10-29T11:01:13Z</time>
      </trkpt>
      <trkpt lat="41.685603" lon="2.688985">
        <ele>58.0</ele>
        <time>2013-10-29T11:01:14Z</time>
      </trkpt>
      <trkpt lat="41.685336" lon="2.688874">
        <ele>58.2</ele>
        <time>2013-10-29T11:01:17Z</time>
      </trkpt>
      <trkpt lat="41.685263" lon="2.688798">
        <ele>58.4</ele>
        <time>2013-10-29T11:01:18Z</time>
      </trkpt>
      <trkpt lat="41.685124" lon="2.688612">
        <ele>58.2</ele>
        <time>2013-10-29T11:01:20Z</time>
      </trkpt>
      <trkpt lat="41.685088" lon="2.688489">
        <ele>58.0</ele>
        <time>2013-10-29T11:01:21Z</time>
      </trkpt>
      <trkpt lat="41.685021" lon="2.688237">
        <ele>57.8</ele>
        <time>2013-10-29T11:01:23Z</time>
      </trkpt>
      <trkpt lat="41.684988" lon="2.688110">
        <ele>57.6</ele>
        <time>2013-10-29T11:01:24Z</time>
      </trkpt>
      <trkpt lat="41.684831" lon="2.687778">
        <ele>57.4</ele>
        <time>2013-10-29T11:01:27Z</time>
      </trkpt>
      <trkpt lat="41.684750" lon="2.687691">
        <ele>57.4</ele>
        <time>2013-10-29T11:01:28Z</time>
      </trkpt>
      <trkpt lat="41.684579" lon="2.687588">
        <ele>57.2</ele>
        <time>2013-10-29T11:01:30Z</time>
      </trkpt>
      <trkpt lat="41.684493" lon="2.687552">
        <ele>57.2</ele>
        <time>2013-10-29T11:01:31Z</time>
      </trkpt>
      <trkpt lat="41.684254" lon="2.687296">
        <ele>56.4</ele>
        <time>2013-10-29T11:01:35Z</time>
      </trkpt>
      <trkpt lat="41.684208" lon="2.687208">
        <ele>56.2</ele>
        <time>2013-10-29T11:01:36Z</time>
      </trkpt>
      <trkpt lat="41.684082" lon="2.686954">
        <ele>55.8</ele>
        <time>2013-10-29T11:01:39Z</time>
      </trkpt>
      <trkpt lat="41.683948" lon="2.686687">
        <ele>55.6</ele>
        <time>2013-10-29T11:01:42Z</time>
      </trkpt>
      <trkpt lat="41.683792" lon="2.686441">
        <ele>55.2</ele>
        <time>2013-10-29T11:01:45Z</time>
      </trkpt>
      <trkpt lat="41.683612" lon="2.686203">
        <ele>55.2</ele>
        <time>2013-10-29T11:01:48Z</time>
      </trkpt>
      <trkpt lat="41.683432" lon="2.685976">
        <ele>54.8</ele>
        <time>2013-10-29T11:01:51Z</time>
      </trkpt>
      <trkpt lat="41.683313" lon="2.685799">
        <ele>54.4</ele>
        <time>2013-10-29T11:01:53Z</time>
      </trkpt>
      <trkpt lat="41.683154" lon="2.685394">
        <ele>53.8</ele>
        <time>2013-10-29T11:01:57Z</time>
      </trkpt>
      <trkpt lat="41.683129" lon="2.685282">
        <ele>53.6</ele>
        <time>2013-10-29T11:01:58Z</time>
      </trkpt>
      <trkpt lat="41.683058" lon="2.684955">
        <ele>53.4</ele>
        <time>2013-10-29T11:02:01Z</time>
      </trkpt>
      <trkpt lat="41.682986" lon="2.684655">
        <ele>53.2</ele>
        <time>2013-10-29T11:02:04Z</time>
      </trkpt>
      <trkpt lat="41.682920" lon="2.684380">
        <ele>53.0</ele>
        <time>2013-10-29T11:02:07Z</time>
      </trkpt>
      <trkpt lat="41.682857" lon="2.684124">
        <ele>53.0</ele>
        <time>2013-10-29T11:02:10Z</time>
      </trkpt>
      <trkpt lat="41.682794" lon="2.683877">
        <ele>52.8</ele>
        <time>2013-10-29T11:02:13Z</time>
      </trkpt>
      <trkpt lat="41.682776" lon="2.683817">
        <ele>52.8</ele>
        <time>2013-10-29T11:02:14Z</time>
      </trkpt>
      <trkpt lat="41.682675" lon="2.683586">
        <ele>52.8</ele>
        <time>2013-10-29T11:02:17Z</time>
      </trkpt>
      <trkpt lat="41.682219" lon="2.683239">
        <ele>52.6</ele>
        <time>2013-10-29T11:02:25Z</time>
      </trkpt>
      <trkpt lat="41.682155" lon="2.683214">
        <ele>52.6</ele>
        <time>2013-10-29T11:02:26Z</time>
      </trkpt>
      <trkpt lat="41.681971" lon="2.683120">
        <ele>52.6</ele>
        <time>2013-10-29T11:02:29Z</time>
      </trkpt>
      <trkpt lat="41.681741" lon="2.682972">
        <ele>52.6</ele>
        <time>2013-10-29T11:02:33Z</time>
      </trkpt>
      <trkpt lat="41.681563" lon="2.682866">
        <ele>52.6</ele>
        <time>2013-10-29T11:02:36Z</time>
      </trkpt>
      <trkpt lat="41.681513" lon="2.682839">
        <ele>52.6</ele>
        <time>2013-10-29T11:02:37Z</time>
      </trkpt>
      <trkpt lat="41.681404" lon="2.682765">
        <ele>52.6</ele>
        <time>2013-10-29T11:02:39Z</time>
      </trkpt>
      <trkpt lat="41.681303" lon="2.682668">
        <ele>53.0</ele>
        <time>2013-10-29T11:02:41Z</time>
      </trkpt>
      <trkpt lat="41.681212" lon="2.682560">
        <ele>53.4</ele>
        <time>2013-10-29T11:02:43Z</time>
      </trkpt>
      <trkpt lat="41.681071" lon="2.682405">
        <ele>53.6</ele>
        <time>2013-10-29T11:02:46Z</time>
      </trkpt>
      <trkpt lat="41.680917" lon="2.682259">
        <ele>54.0</ele>
        <time>2013-10-29T11:02:49Z</time>
      </trkpt>
      <trkpt lat="41.680770" lon="2.682116">
        <ele>54.2</ele>
        <time>2013-10-29T11:02:52Z</time>
      </trkpt>
      <trkpt lat="41.680622" lon="2.681964">
        <ele>54.2</ele>
        <time>2013-10-29T11:02:55Z</time>
      </trkpt>
      <trkpt lat="41.680494" lon="2.681807">
        <ele>54.4</ele>
        <time>2013-10-29T11:02:58Z</time>
      </trkpt>
      <trkpt lat="41.680328" lon="2.681508">
        <ele>54.4</ele>
        <time>2013-10-29T11:03:03Z</time>
      </trkpt>
      <trkpt lat="41.680195" lon="2.681282">
        <ele>54.6</ele>
        <time>2013-10-29T11:03:07Z</time>
      </trkpt>
      <trkpt lat="41.680087" lon="2.681124">
        <ele>54.6</ele>
        <time>2013-10-29T11:03:10Z</time>
      </trkpt>
      <trkpt lat="41.679986" lon="2.680876">
        <ele>55.0</ele>
        <time>2013-10-29T11:03:14Z</time>
      </trkpt>
      <trkpt lat="41.679953" lon="2.680602">
        <ele>55.6</ele>
        <time>2013-10-29T11:03:18Z</time>
      </trkpt>
      <trkpt lat="41.679945" lon="2.680230">
        <ele>56.2</ele>
        <time>2013-10-29T11:03:23Z</time>
      </trkpt>
      <trkpt lat="41.679941" lon="2.679959">
        <ele>57.4</ele>
        <time>2013-10-29T11:03:27Z</time>
      </trkpt>
      <trkpt lat="41.679904" lon="2.679611">
        <ele>58.4</ele>
        <time>2013-10-29T11:03:32Z</time>
      </trkpt>
      <trkpt lat="41.679865" lon="2.679318">
        <ele>59.4</ele>
        <time>2013-10-29T11:03:36Z</time>
      </trkpt>
      <trkpt lat="41.679856" lon="2.679251">
        <ele>59.6</ele>
        <time>2013-10-29T11:03:37Z</time>
      </trkpt>
      <trkpt lat="41.679840" lon="2.678954">
        <ele>60.6</ele>
        <time>2013-10-29T11:03:41Z</time>
      </trkpt>
      <trkpt lat="41.679852" lon="2.678661">
        <ele>61.6</ele>
        <time>2013-10-29T11:03:45Z</time>
      </trkpt>
      <trkpt lat="41.679863" lon="2.678517">
        <ele>62.0</ele>
        <time>2013-10-29T11:03:47Z</time>
      </trkpt>
      <trkpt lat="41.679896" lon="2.678155">
        <ele>63.2</ele>
        <time>2013-10-29T11:03:52Z</time>
      </trkpt>
      <trkpt lat="41.679894" lon="2.677883">
        <ele>64.0</ele>
        <time>2013-10-29T11:03:56Z</time>
      </trkpt>
      <trkpt lat="41.679892" lon="2.677830">
        <ele>64.4</ele>
        <time>2013-10-29T11:03:57Z</time>
      </trkpt>
      <trkpt lat="41.679802" lon="2.677503">
        <ele>65.8</ele>
        <time>2013-10-29T11:04:02Z</time>
      </trkpt>
      <trkpt lat="41.679648" lon="2.677370">
        <ele>66.2</ele>
        <time>2013-10-29T11:04:05Z</time>
      </trkpt>
      <trkpt lat="41.679467" lon="2.677288">
        <ele>67.2</ele>
        <time>2013-10-29T11:04:08Z</time>
      </trkpt>
      <trkpt lat="41.679305" lon="2.677115">
        <ele>67.8</ele>
        <time>2013-10-29T11:04:11Z</time>
      </trkpt>
      <trkpt lat="41.679273" lon="2.677036">
        <ele>68.0</ele>
        <time>2013-10-29T11:04:12Z</time>
      </trkpt>
      <trkpt lat="41.679147" lon="2.676680">
        <ele>68.6</ele>
        <time>2013-10-29T11:04:16Z</time>
      </trkpt>
      <trkpt lat="41.679085" lon="2.676527">
        <ele>68.8</ele>
        <time>2013-10-29T11:04:18Z</time>
      </trkpt>
      <trkpt lat="41.679030" lon="2.676342">
        <ele>69.0</ele>
        <time>2013-10-29T11:04:20Z</time>
      </trkpt>
      <trkpt lat="41.679025" lon="2.675930">
        <ele>69.2</ele>
        <time>2013-10-29T11:04:24Z</time>
      </trkpt>
      <trkpt lat="41.679002" lon="2.675609">
        <ele>69.4</ele>
        <time>2013-10-29T11:04:27Z</time>
      </trkpt>
      <trkpt lat="41.678956" lon="2.675276">
        <ele>69.4</ele>
        <time>2013-10-29T11:04:30Z</time>
      </trkpt>
      <trkpt lat="41.678894" lon="2.674949">
        <ele>69.6</ele>
        <time>2013-10-29T11:04:33Z</time>
      </trkpt>
      <trkpt lat="41.678858" lon="2.674840">
        <ele>69.6</ele>
        <time>2013-10-29T11:04:34Z</time>
      </trkpt>
      <trkpt lat="41.678669" lon="2.674612">
        <ele>69.6</ele>
        <time>2013-10-29T11:04:37Z</time>
      </trkpt>
      <trkpt lat="41.678458" lon="2.674425">
        <ele>69.6</ele>
        <time>2013-10-29T11:04:40Z</time>
      </trkpt>
      <trkpt lat="41.678381" lon="2.674129">
        <ele>69.6</ele>
        <time>2013-10-29T11:04:43Z</time>
      </trkpt>
      <trkpt lat="41.678371" lon="2.674029">
        <ele>69.6</ele>
        <time>2013-10-29T11:04:44Z</time>
      </trkpt>
      <trkpt lat="41.678329" lon="2.673753">
        <ele>69.6</ele>
        <time>2013-10-29T11:04:47Z</time>
      </trkpt>
      <trkpt lat="41.678263" lon="2.673503">
        <ele>69.6</ele>
        <time>2013-10-29T11:04:50Z</time>
      </trkpt>
      <trkpt lat="41.678176" lon="2.673272">
        <ele>69.6</ele>
        <time>2013-10-29T11:04:53Z</time>
      </trkpt>
      <trkpt lat="41.678083" lon="2.673040">
        <ele>69.6</ele>
        <time>2013-10-29T11:04:56Z</time>
      </trkpt>
      <trkpt lat="41.677994" lon="2.672826">
        <ele>69.6</ele>
        <time>2013-10-29T11:04:59Z</time>
      </trkpt>
      <trkpt lat="41.677916" lon="2.672686">
        <ele>69.6</ele>
        <time>2013-10-29T11:05:01Z</time>
      </trkpt>
      <trkpt lat="41.677830" lon="2.672568">
        <ele>69.6</ele>
        <time>2013-10-29T11:05:03Z</time>
      </trkpt>
      <trkpt lat="41.677731" lon="2.672468">
        <ele>69.6</ele>
        <time>2013-10-29T11:05:05Z</time>
      </trkpt>
      <trkpt lat="41.677676" lon="2.672428">
        <ele>69.6</ele>
        <time>2013-10-29T11:05:06Z</time>
      </trkpt>
      <trkpt lat="41.677427" lon="2.672325">
        <ele>69.6</ele>
        <time>2013-10-29T11:05:10Z</time>
      </trkpt>
      <trkpt lat="41.677360" lon="2.672297">
        <ele>69.6</ele>
        <time>2013-10-29T11:05:11Z</time>
      </trkpt>
      <trkpt lat="41.677135" lon="2.672080">
        <ele>69.6</ele>
        <time>2013-10-29T11:05:15Z</time>
      </trkpt>
      <trkpt lat="41.677092" lon="2.671997">
        <ele>69.6</ele>
        <time>2013-10-29T11:05:16Z</time>
      </trkpt>
      <trkpt lat="41.676959" lon="2.671672">
        <ele>69.6</ele>
        <time>2013-10-29T11:05:20Z</time>
      </trkpt>
      <trkpt lat="41.676876" lon="2.671444">
        <ele>69.6</ele>
        <time>2013-10-29T11:05:23Z</time>
      </trkpt>
      <trkpt lat="41.676797" lon="2.671214">
        <ele>69.6</ele>
        <time>2013-10-29T11:05:26Z</time>
      </trkpt>
      <trkpt lat="41.676719" lon="2.670926">
        <ele>70.2</ele>
        <time>2013-10-29T11:05:30Z</time>
      </trkpt>
      <trkpt lat="41.676667" lon="2.670738">
        <ele>70.6</ele>
        <time>2013-10-29T11:05:33Z</time>
      </trkpt>
      <trkpt lat="41.676492" lon="2.670509">
        <ele>71.2</ele>
        <time>2013-10-29T11:05:38Z</time>
      </trkpt>
      <trkpt lat="41.676293" lon="2.670524">
        <ele>72.2</ele>
        <time>2013-10-29T11:05:42Z</time>
      </trkpt>
      <trkpt lat="41.676161" lon="2.670408">
        <ele>72.6</ele>
        <time>2013-10-29T11:05:45Z</time>
      </trkpt>
      <trkpt lat="41.676135" lon="2.670336">
        <ele>72.6</ele>
        <time>2013-10-29T11:05:46Z</time>
      </trkpt>
      <trkpt lat="41.676037" lon="2.670038">
        <ele>73.8</ele>
        <time>2013-10-29T11:05:50Z</time>
      </trkpt>
      <trkpt lat="41.675939" lon="2.669831">
        <ele>74.2</ele>
        <time>2013-10-29T11:05:53Z</time>
      </trkpt>
      <trkpt lat="41.675830" lon="2.669633">
        <ele>74.8</ele>
        <time>2013-10-29T11:05:56Z</time>
      </trkpt>
      <trkpt lat="41.675701" lon="2.669390">
        <ele>76.0</ele>
        <time>2013-10-29T11:06:00Z</time>
      </trkpt>
      <trkpt lat="41.675584" lon="2.669158">
        <ele>76.6</ele>
        <time>2013-10-29T11:06:04Z</time>
      </trkpt>
      <trkpt lat="41.675559" lon="2.669098">
        <ele>77.0</ele>
        <time>2013-10-29T11:06:05Z</time>
      </trkpt>
      <trkpt lat="41.675526" lon="2.668814">
        <ele>78.0</ele>
        <time>2013-10-29T11:06:09Z</time>
      </trkpt>
      <trkpt lat="41.675467" lon="2.668521">
        <ele>78.8</ele>
        <time>2013-10-29T11:06:13Z</time>
      </trkpt>
      <trkpt lat="41.675445" lon="2.668455">
        <ele>78.8</ele>
        <time>2013-10-29T11:06:14Z</time>
      </trkpt>
      <trkpt lat="41.675414" lon="2.668401">
        <ele>79.0</ele>
        <time>2013-10-29T11:06:15Z</time>
      </trkpt>
      <trkpt lat="41.675334" lon="2.668299">
        <ele>79.6</ele>
        <time>2013-10-29T11:06:17Z</time>
      </trkpt>
      <trkpt lat="41.675106" lon="2.668145">
        <ele>80.6</ele>
        <time>2013-10-29T11:06:22Z</time>
      </trkpt>
      <trkpt lat="41.675051" lon="2.668109">
        <ele>80.8</ele>
        <time>2013-10-29T11:06:23Z</time>
      </trkpt>
      <trkpt lat="41.674889" lon="2.667939">
        <ele>81.2</ele>
        <time>2013-10-29T11:06:27Z</time>
      </trkpt>
      <trkpt lat="41.674857" lon="2.667879">
        <ele>81.6</ele>
        <time>2013-10-29T11:06:28Z</time>
      </trkpt>
      <trkpt lat="41.674760" lon="2.667650">
        <ele>82.4</ele>
        <time>2013-10-29T11:06:32Z</time>
      </trkpt>
      <trkpt lat="41.674627" lon="2.667389">
        <ele>83.4</ele>
        <time>2013-10-29T11:06:37Z</time>
      </trkpt>
      <trkpt lat="41.674577" lon="2.667282">
        <ele>84.0</ele>
        <time>2013-10-29T11:06:39Z</time>
      </trkpt>
      <trkpt lat="41.674521" lon="2.667108">
        <ele>84.6</ele>
        <time>2013-10-29T11:06:42Z</time>
      </trkpt>
      <trkpt lat="41.674467" lon="2.666856">
        <ele>85.6</ele>
        <time>2013-10-29T11:06:46Z</time>
      </trkpt>
      <trkpt lat="41.674430" lon="2.666546">
        <ele>86.8</ele>
        <time>2013-10-29T11:06:51Z</time>
      </trkpt>
      <trkpt lat="41.674423" lon="2.666414">
        <ele>87.2</ele>
        <time>2013-10-29T11:06:53Z</time>
      </trkpt>
      <trkpt lat="41.674375" lon="2.666107">
        <ele>88.6</ele>
        <time>2013-10-29T11:06:58Z</time>
      </trkpt>
      <trkpt lat="41.674262" lon="2.666039">
        <ele>89.2</ele>
        <time>2013-10-29T11:07:01Z</time>
      </trkpt>
      <trkpt lat="41.674182" lon="2.666062">
        <ele>89.8</ele>
        <time>2013-10-29T11:07:03Z</time>
      </trkpt>
      <trkpt lat="41.674095" lon="2.666098">
        <ele>90.2</ele>
        <time>2013-10-29T11:07:05Z</time>
      </trkpt>
      <trkpt lat="41.673881" lon="2.666068">
        <ele>91.4</ele>
        <time>2013-10-29T11:07:10Z</time>
      </trkpt>
      <trkpt lat="41.673841" lon="2.666035">
        <ele>91.4</ele>
        <time>2013-10-29T11:07:11Z</time>
      </trkpt>
      <trkpt lat="41.673532" lon="2.665795">
        <ele>93.0</ele>
        <time>2013-10-29T11:07:19Z</time>
      </trkpt>
      <trkpt lat="41.673383" lon="2.665601">
        <ele>94.0</ele>
        <time>2013-10-29T11:07:24Z</time>
      </trkpt>
      <trkpt lat="41.673300" lon="2.665403">
        <ele>95.2</ele>
        <time>2013-10-29T11:07:28Z</time>
      </trkpt>
      <trkpt lat="41.673254" lon="2.665245">
        <ele>95.6</ele>
        <time>2013-10-29T11:07:31Z</time>
      </trkpt>
      <trkpt lat="41.673240" lon="2.664895">
        <ele>97.2</ele>
        <time>2013-10-29T11:07:37Z</time>
      </trkpt>
      <trkpt lat="41.673247" lon="2.664640">
        <ele>97.8</ele>
        <time>2013-10-29T11:07:41Z</time>
      </trkpt>
      <trkpt lat="41.673254" lon="2.664512">
        <ele>98.4</ele>
        <time>2013-10-29T11:07:43Z</time>
      </trkpt>
      <trkpt lat="41.673263" lon="2.664184">
        <ele>99.6</ele>
        <time>2013-10-29T11:07:48Z</time>
      </trkpt>
      <trkpt lat="41.673268" lon="2.664120">
        <ele>99.8</ele>
        <time>2013-10-29T11:07:49Z</time>
      </trkpt>
      <trkpt lat="41.673289" lon="2.663802">
        <ele>101.0</ele>
        <time>2013-10-29T11:07:54Z</time>
      </trkpt>
      <trkpt lat="41.673298" lon="2.663614">
        <ele>101.8</ele>
        <time>2013-10-29T11:07:57Z</time>
      </trkpt>
      <trkpt lat="41.673296" lon="2.663484">
        <ele>102.2</ele>
        <time>2013-10-29T11:07:59Z</time>
      </trkpt>
      <trkpt lat="41.673302" lon="2.663302">
        <ele>102.6</ele>
        <time>2013-10-29T11:08:02Z</time>
      </trkpt>
      <trkpt lat="41.673305" lon="2.663011">
        <ele>103.8</ele>
        <time>2013-10-29T11:08:07Z</time>
      </trkpt>
      <trkpt lat="41.673313" lon="2.662949">
        <ele>104.0</ele>
        <time>2013-10-29T11:08:08Z</time>
      </trkpt>
      <trkpt lat="41.673337" lon="2.662692">
        <ele>105.4</ele>
        <time>2013-10-29T11:08:13Z</time>
      </trkpt>
      <trkpt lat="41.673345" lon="2.662635">
        <ele>105.6</ele>
        <time>2013-10-29T11:08:14Z</time>
      </trkpt>
      <trkpt lat="41.673507" lon="2.662154">
        <ele>108.4</ele>
        <time>2013-10-29T11:08:25Z</time>
      </trkpt>
      <trkpt lat="41.673609" lon="2.661947">
        <ele>110.0</ele>
        <time>2013-10-29T11:08:30Z</time>
      </trkpt>
      <trkpt lat="41.673702" lon="2.661729">
        <ele>111.4</ele>
        <time>2013-10-29T11:08:35Z</time>
      </trkpt>
      <trkpt lat="41.673773" lon="2.661494">
        <ele>112.8</ele>
        <time>2013-10-29T11:08:40Z</time>
      </trkpt>
      <trkpt lat="41.673822" lon="2.661283">
        <ele>114.2</ele>
        <time>2013-10-29T11:08:45Z</time>
      </trkpt>
      <trkpt lat="41.673854" lon="2.661003">
        <ele>116.0</ele>
        <time>2013-10-29T11:08:51Z</time>
      </trkpt>
      <trkpt lat="41.673881" lon="2.660712">
        <ele>117.0</ele>
        <time>2013-10-29T11:08:56Z</time>
      </trkpt>
      <trkpt lat="41.673897" lon="2.660571">
        <ele>117.6</ele>
        <time>2013-10-29T11:08:58Z</time>
      </trkpt>
      <trkpt lat="41.673921" lon="2.660186">
        <ele>118.8</ele>
        <time>2013-10-29T11:09:03Z</time>
      </trkpt>
      <trkpt lat="41.673933" lon="2.660021">
        <ele>119.2</ele>
        <time>2013-10-29T11:09:05Z</time>
      </trkpt>
      <trkpt lat="41.673988" lon="2.659628">
        <ele>120.2</ele>
        <time>2013-10-29T11:09:10Z</time>
      </trkpt>
      <trkpt lat="41.674005" lon="2.659551">
        <ele>120.4</ele>
        <time>2013-10-29T11:09:11Z</time>
      </trkpt>
      <trkpt lat="41.674072" lon="2.659340">
        <ele>121.0</ele>
        <time>2013-10-29T11:09:14Z</time>
      </trkpt>
      <trkpt lat="41.674232" lon="2.659120">
        <ele>121.6</ele>
        <time>2013-10-29T11:09:18Z</time>
      </trkpt>
      <trkpt lat="41.674368" lon="2.658713">
        <ele>122.2</ele>
        <time>2013-10-29T11:09:24Z</time>
      </trkpt>
      <trkpt lat="41.674386" lon="2.658562">
        <ele>122.6</ele>
        <time>2013-10-29T11:09:26Z</time>
      </trkpt>
      <trkpt lat="41.674465" lon="2.658272">
        <ele>123.4</ele>
        <time>2013-10-29T11:09:30Z</time>
      </trkpt>
      <trkpt lat="41.674664" lon="2.657997">
        <ele>124.0</ele>
        <time>2013-10-29T11:09:35Z</time>
      </trkpt>
      <trkpt lat="41.674746" lon="2.657912">
        <ele>124.2</ele>
        <time>2013-10-29T11:09:37Z</time>
      </trkpt>
      <trkpt lat="41.674861" lon="2.657623">
        <ele>125.0</ele>
        <time>2013-10-29T11:09:42Z</time>
      </trkpt>
      <trkpt lat="41.674837" lon="2.657493">
        <ele>125.4</ele>
        <time>2013-10-29T11:09:44Z</time>
      </trkpt>
      <trkpt lat="41.674785" lon="2.657359">
        <ele>125.8</ele>
        <time>2013-10-29T11:09:46Z</time>
      </trkpt>
      <trkpt lat="41.674739" lon="2.657114">
        <ele>126.0</ele>
        <time>2013-10-29T11:09:49Z</time>
      </trkpt>
      <trkpt lat="41.674713" lon="2.656829">
        <ele>126.6</ele>
        <time>2013-10-29T11:09:52Z</time>
      </trkpt>
      <trkpt lat="41.674656" lon="2.656506">
        <ele>127.2</ele>
        <time>2013-10-29T11:09:55Z</time>
      </trkpt>
      <trkpt lat="41.674629" lon="2.656403">
        <ele>127.4</ele>
        <time>2013-10-29T11:09:56Z</time>
      </trkpt>
      <trkpt lat="41.674473" lon="2.656178">
        <ele>127.8</ele>
        <time>2013-10-29T11:09:59Z</time>
      </trkpt>
      <trkpt lat="41.674313" lon="2.656184">
        <ele>128.0</ele>
        <time>2013-10-29T11:10:01Z</time>
      </trkpt>
      <trkpt lat="41.674170" lon="2.656282">
        <ele>128.2</ele>
        <time>2013-10-29T11:10:03Z</time>
      </trkpt>
      <trkpt lat="41.673983" lon="2.656464">
        <ele>128.4</ele>
        <time>2013-10-29T11:10:06Z</time>
      </trkpt>
      <trkpt lat="41.673885" lon="2.656578">
        <ele>128.6</ele>
        <time>2013-10-29T11:10:09Z</time>
      </trkpt>
      <trkpt lat="41.673846" lon="2.656641">
        <ele>128.6</ele>
        <time>2013-10-29T11:10:11Z</time>
      </trkpt>
      <trkpt lat="41.673681" lon="2.656744">
        <ele>128.8</ele>
        <time>2013-10-29T11:10:17Z</time>
      </trkpt>
      <trkpt lat="41.673567" lon="2.656684">
        <ele>129.0</ele>
        <time>2013-10-29T11:10:21Z</time>
      </trkpt>
      <trkpt lat="41.673591" lon="2.656573">
        <ele>129.0</ele>
        <time>2013-10-29T11:10:24Z</time>
      </trkpt>
      <trkpt lat="41.673678" lon="2.656538">
        <ele>129.0</ele>
        <time>2013-10-29T11:10:27Z</time>
      </trkpt>
      <trkpt lat="41.673809" lon="2.656474">
        <ele>129.8</ele>
        <time>2013-10-29T11:10:32Z</time>
      </trkpt>
      <trkpt lat="41.673816" lon="2.656309">
        <ele>130.6</ele>
        <time>2013-10-29T11:10:37Z</time>
      </trkpt>
      <trkpt lat="41.673776" lon="2.656215">
        <ele>131.4</ele>
        <time>2013-10-29T11:10:40Z</time>
      </trkpt>
      <trkpt lat="41.673722" lon="2.655988">
        <ele>132.8</ele>
        <time>2013-10-29T11:10:47Z</time>
      </trkpt>
      <trkpt lat="41.673681" lon="2.655805">
        <ele>134.2</ele>
        <time>2013-10-29T11:10:53Z</time>
      </trkpt>
      <trkpt lat="41.673588" lon="2.655625">
        <ele>135.8</ele>
        <time>2013-10-29T11:10:59Z</time>
      </trkpt>
      <trkpt lat="41.673500" lon="2.655474">
        <ele>137.6</ele>
        <time>2013-10-29T11:11:05Z</time>
      </trkpt>
      <trkpt lat="41.673426" lon="2.655346">
        <ele>139.0</ele>
        <time>2013-10-29T11:11:10Z</time>
      </trkpt>
      <trkpt lat="41.673311" lon="2.655083">
        <ele>141.2</ele>
        <time>2013-10-29T11:11:18Z</time>
      </trkpt>
      <trkpt lat="41.673255" lon="2.654847">
        <ele>143.2</ele>
        <time>2013-10-29T11:11:25Z</time>
      </trkpt>
      <trkpt lat="41.673166" lon="2.654644">
        <ele>145.6</ele>
        <time>2013-10-29T11:11:33Z</time>
      </trkpt>
      <trkpt lat="41.673154" lon="2.654587">
        <ele>146.4</ele>
        <time>2013-10-29T11:11:35Z</time>
      </trkpt>
      <trkpt lat="41.673154" lon="2.654477">
        <ele>147.8</ele>
        <time>2013-10-29T11:11:39Z</time>
      </trkpt>
      <trkpt lat="41.673187" lon="2.654286">
        <ele>150.8</ele>
        <time>2013-10-29T11:11:47Z</time>
      </trkpt>
      <trkpt lat="41.673190" lon="2.654114">
        <ele>153.4</ele>
        <time>2013-10-29T11:11:54Z</time>
      </trkpt>
      <trkpt lat="41.673121" lon="2.653948">
        <ele>156.0</ele>
        <time>2013-10-29T11:12:01Z</time>
      </trkpt>
      <trkpt lat="41.673038" lon="2.653800">
        <ele>158.0</ele>
        <time>2013-10-29T11:12:06Z</time>
      </trkpt>
      <trkpt lat="41.672866" lon="2.653668">
        <ele>160.6</ele>
        <time>2013-10-29T11:12:13Z</time>
      </trkpt>
      <trkpt lat="41.672714" lon="2.653541">
        <ele>162.6</ele>
        <time>2013-10-29T11:12:19Z</time>
      </trkpt>
      <trkpt lat="41.672686" lon="2.653327">
        <ele>164.0</ele>
        <time>2013-10-29T11:12:24Z</time>
      </trkpt>
      <trkpt lat="41.672692" lon="2.653220">
        <ele>164.8</ele>
        <time>2013-10-29T11:12:27Z</time>
      </trkpt>
      <trkpt lat="41.672616" lon="2.653010">
        <ele>167.4</ele>
        <time>2013-10-29T11:12:34Z</time>
      </trkpt>
      <trkpt lat="41.672505" lon="2.652967">
        <ele>169.6</ele>
        <time>2013-10-29T11:12:40Z</time>
      </trkpt>
      <trkpt lat="41.672385" lon="2.652899">
        <ele>172.0</ele>
        <time>2013-10-29T11:12:47Z</time>
      </trkpt>
      <trkpt lat="41.672306" lon="2.652795">
        <ele>173.8</ele>
        <time>2013-10-29T11:12:53Z</time>
      </trkpt>
      <trkpt lat="41.672200" lon="2.652699">
        <ele>176.4</ele>
        <time>2013-10-29T11:13:00Z</time>
      </trkpt>
      <trkpt lat="41.672185" lon="2.652678">
        <ele>176.8</ele>
        <time>2013-10-29T11:13:01Z</time>
      </trkpt>
      <trkpt lat="41.672160" lon="2.652616">
        <ele>177.8</ele>
        <time>2013-10-29T11:13:04Z</time>
      </trkpt>
      <trkpt lat="41.672081" lon="2.652450">
        <ele>181.0</ele>
        <time>2013-10-29T11:13:13Z</time>
      </trkpt>
      <trkpt lat="41.671851" lon="2.652172">
        <ele>188.0</ele>
        <time>2013-10-29T11:13:32Z</time>
      </trkpt>
      <trkpt lat="41.671733" lon="2.652103">
        <ele>190.0</ele>
        <time>2013-10-29T11:13:38Z</time>
      </trkpt>
      <trkpt lat="41.671618" lon="2.652056">
        <ele>192.0</ele>
        <time>2013-10-29T11:13:44Z</time>
      </trkpt>
      <trkpt lat="41.671516" lon="2.652040">
        <ele>193.6</ele>
        <time>2013-10-29T11:13:50Z</time>
      </trkpt>
      <trkpt lat="41.671402" lon="2.652034">
        <ele>195.4</ele>
        <time>2013-10-29T11:13:57Z</time>
      </trkpt>
      <trkpt lat="41.671311" lon="2.651983">
        <ele>197.0</ele>
        <time>2013-10-29T11:14:03Z</time>
      </trkpt>
      <trkpt lat="41.671202" lon="2.651901">
        <ele>198.6</ele>
        <time>2013-10-29T11:14:10Z</time>
      </trkpt>
      <trkpt lat="41.671077" lon="2.651813">
        <ele>200.8</ele>
        <time>2013-10-29T11:14:18Z</time>
      </trkpt>
      <trkpt lat="41.670995" lon="2.651787">
        <ele>202.4</ele>
        <time>2013-10-29T11:14:24Z</time>
      </trkpt>
      <trkpt lat="41.670889" lon="2.651852">
        <ele>204.4</ele>
        <time>2013-10-29T11:14:31Z</time>
      </trkpt>
      <trkpt lat="41.670769" lon="2.651958">
        <ele>205.4</ele>
        <time>2013-10-29T11:14:37Z</time>
      </trkpt>
      <trkpt lat="41.670638" lon="2.651994">
        <ele>206.6</ele>
        <time>2013-10-29T11:14:42Z</time>
      </trkpt>
      <trkpt lat="41.670456" lon="2.652004">
        <ele>207.6</ele>
        <time>2013-10-29T11:14:49Z</time>
      </trkpt>
      <trkpt lat="41.670393" lon="2.652101">
        <ele>207.8</ele>
        <time>2013-10-29T11:14:53Z</time>
      </trkpt>
      <trkpt lat="41.670345" lon="2.652282">
        <ele>209.0</ele>
        <time>2013-10-29T11:14:58Z</time>
      </trkpt>
      <trkpt lat="41.670247" lon="2.652476">
        <ele>209.6</ele>
        <time>2013-10-29T11:15:03Z</time>
      </trkpt>
      <trkpt lat="41.670117" lon="2.652655">
        <ele>210.0</ele>
        <time>2013-10-29T11:15:07Z</time>
      </trkpt>
      <trkpt lat="41.670086" lon="2.652718">
        <ele>210.2</ele>
        <time>2013-10-29T11:15:08Z</time>
      </trkpt>
      <trkpt lat="41.670045" lon="2.652843">
        <ele>210.6</ele>
        <time>2013-10-29T11:15:10Z</time>
      </trkpt>
      <trkpt lat="41.669906" lon="2.653054">
        <ele>211.4</ele>
        <time>2013-10-29T11:15:15Z</time>
      </trkpt>
      <trkpt lat="41.669848" lon="2.653095">
        <ele>211.6</ele>
        <time>2013-10-29T11:15:17Z</time>
      </trkpt>
      <trkpt lat="41.669692" lon="2.653198">
        <ele>212.8</ele>
        <time>2013-10-29T11:15:22Z</time>
      </trkpt>
      <trkpt lat="41.669553" lon="2.653152">
        <ele>213.6</ele>
        <time>2013-10-29T11:15:27Z</time>
      </trkpt>
      <trkpt lat="41.669427" lon="2.653182">
        <ele>214.4</ele>
        <time>2013-10-29T11:15:30Z</time>
      </trkpt>
      <trkpt lat="41.669404" lon="2.653241">
        <ele>214.8</ele>
        <time>2013-10-29T11:15:31Z</time>
      </trkpt>
      <trkpt lat="41.669394" lon="2.653583">
        <ele>215.4</ele>
        <time>2013-10-29T11:15:35Z</time>
      </trkpt>
      <trkpt lat="41.669401" lon="2.653675">
        <ele>215.6</ele>
        <time>2013-10-29T11:15:36Z</time>
      </trkpt>
      <trkpt lat="41.669306" lon="2.653806">
        <ele>216.0</ele>
        <time>2013-10-29T11:15:40Z</time>
      </trkpt>
      <trkpt lat="41.669267" lon="2.653812">
        <ele>216.2</ele>
        <time>2013-10-29T11:15:41Z</time>
      </trkpt>
      <trkpt lat="41.669190" lon="2.653816">
        <ele>216.4</ele>
        <time>2013-10-29T11:15:43Z</time>
      </trkpt>
      <trkpt lat="41.669130" lon="2.653812">
        <ele>217.0</ele>
        <time>2013-10-29T11:15:45Z</time>
      </trkpt>
      <trkpt lat="41.668977" lon="2.653793">
        <ele>218.0</ele>
        <time>2013-10-29T11:15:52Z</time>
      </trkpt>
      <trkpt lat="41.668840" lon="2.653809">
        <ele>219.4</ele>
        <time>2013-10-29T11:15:58Z</time>
      </trkpt>
      <trkpt lat="41.668700" lon="2.653834">
        <ele>220.4</ele>
        <time>2013-10-29T11:16:04Z</time>
      </trkpt>
      <trkpt lat="41.668577" lon="2.653890">
        <ele>221.8</ele>
        <time>2013-10-29T11:16:10Z</time>
      </trkpt>
      <trkpt lat="41.668500" lon="2.653903">
        <ele>222.6</ele>
        <time>2013-10-29T11:16:13Z</time>
      </trkpt>
      <trkpt lat="41.668453" lon="2.653808">
        <ele>223.6</ele>
        <time>2013-10-29T11:16:17Z</time>
      </trkpt>
      <trkpt lat="41.668554" lon="2.653760">
        <ele>224.6</ele>
        <time>2013-10-29T11:16:21Z</time>
      </trkpt>
      <trkpt lat="41.668741" lon="2.653695">
        <ele>225.8</ele>
        <time>2013-10-29T11:16:26Z</time>
      </trkpt>
      <trkpt lat="41.668960" lon="2.653626">
        <ele>227.4</ele>
        <time>2013-10-29T11:16:31Z</time>
      </trkpt>
      <trkpt lat="41.669095" lon="2.653606">
        <ele>228.0</ele>
        <time>2013-10-29T11:16:34Z</time>
      </trkpt>
      <trkpt lat="41.669253" lon="2.653492">
        <ele>229.4</ele>
        <time>2013-10-29T11:16:39Z</time>
      </trkpt>
      <trkpt lat="41.669293" lon="2.653298">
        <ele>230.2</ele>
        <time>2013-10-29T11:16:43Z</time>
      </trkpt>
      <trkpt lat="41.669299" lon="2.653253">
        <ele>230.4</ele>
        <time>2013-10-29T11:16:44Z</time>
      </trkpt>
      <trkpt lat="41.669364" lon="2.653032">
        <ele>231.8</ele>
        <time>2013-10-29T11:16:49Z</time>
      </trkpt>
      <trkpt lat="41.669499" lon="2.652825">
        <ele>233.0</ele>
        <time>2013-10-29T11:16:54Z</time>
      </trkpt>
      <trkpt lat="41.669593" lon="2.652814">
        <ele>233.6</ele>
        <time>2013-10-29T11:16:56Z</time>
      </trkpt>
      <trkpt lat="41.669756" lon="2.652719">
        <ele>234.6</ele>
        <time>2013-10-29T11:17:00Z</time>
      </trkpt>
      <trkpt lat="41.669789" lon="2.652675">
        <ele>234.6</ele>
        <time>2013-10-29T11:17:01Z</time>
      </trkpt>
      <trkpt lat="41.669820" lon="2.652628">
        <ele>234.8</ele>
        <time>2013-10-29T11:17:02Z</time>
      </trkpt>
      <trkpt lat="41.669926" lon="2.652421">
        <ele>236.0</ele>
        <time>2013-10-29T11:17:06Z</time>
      </trkpt>
      <trkpt lat="41.669972" lon="2.652316">
        <ele>236.6</ele>
        <time>2013-10-29T11:17:08Z</time>
      </trkpt>
      <trkpt lat="41.670019" lon="2.652211">
        <ele>237.0</ele>
        <time>2013-10-29T11:17:10Z</time>
      </trkpt>
      <trkpt lat="41.670078" lon="2.652044">
        <ele>238.0</ele>
        <time>2013-10-29T11:17:13Z</time>
      </trkpt>
      <trkpt lat="41.670096" lon="2.651845">
        <ele>238.6</ele>
        <time>2013-10-29T11:17:16Z</time>
      </trkpt>
      <trkpt lat="41.670158" lon="2.651650">
        <ele>239.8</ele>
        <time>2013-10-29T11:17:20Z</time>
      </trkpt>
      <trkpt lat="41.670180" lon="2.651618">
        <ele>240.0</ele>
        <time>2013-10-29T11:17:21Z</time>
      </trkpt>
      <trkpt lat="41.670412" lon="2.651479">
        <ele>242.0</ele>
        <time>2013-10-29T11:17:28Z</time>
      </trkpt>
      <trkpt lat="41.670560" lon="2.651311">
        <ele>243.4</ele>
        <time>2013-10-29T11:17:34Z</time>
      </trkpt>
      <trkpt lat="41.670675" lon="2.651125">
        <ele>244.4</ele>
        <time>2013-10-29T11:17:39Z</time>
      </trkpt>
      <trkpt lat="41.670708" lon="2.651040">
        <ele>245.0</ele>
        <time>2013-10-29T11:17:41Z</time>
      </trkpt>
      <trkpt lat="41.670694" lon="2.650816">
        <ele>245.8</ele>
        <time>2013-10-29T11:17:46Z</time>
      </trkpt>
      <trkpt lat="41.670619" lon="2.650620">
        <ele>247.2</ele>
        <time>2013-10-29T11:17:51Z</time>
      </trkpt>
      <trkpt lat="41.670526" lon="2.650427">
        <ele>248.6</ele>
        <time>2013-10-29T11:17:57Z</time>
      </trkpt>
      <trkpt lat="41.670391" lon="2.650394">
        <ele>249.8</ele>
        <time>2013-10-29T11:18:02Z</time>
      </trkpt>
      <trkpt lat="41.670258" lon="2.650390">
        <ele>251.0</ele>
        <time>2013-10-29T11:18:07Z</time>
      </trkpt>
      <trkpt lat="41.670116" lon="2.650412">
        <ele>252.8</ele>
        <time>2013-10-29T11:18:14Z</time>
      </trkpt>
      <trkpt lat="41.669933" lon="2.650599">
        <ele>255.4</ele>
        <time>2013-10-29T11:18:25Z</time>
      </trkpt>
      <trkpt lat="41.669821" lon="2.650690">
        <ele>256.6</ele>
        <time>2013-10-29T11:18:30Z</time>
      </trkpt>
      <trkpt lat="41.669685" lon="2.650779">
        <ele>258.0</ele>
        <time>2013-10-29T11:18:36Z</time>
      </trkpt>
      <trkpt lat="41.669518" lon="2.650810">
        <ele>260.2</ele>
        <time>2013-10-29T11:18:44Z</time>
      </trkpt>
      <trkpt lat="41.669395" lon="2.650793">
        <ele>262.0</ele>
        <time>2013-10-29T11:18:51Z</time>
      </trkpt>
      <trkpt lat="41.669301" lon="2.650729">
        <ele>263.2</ele>
        <time>2013-10-29T11:18:56Z</time>
      </trkpt>
      <trkpt lat="41.669250" lon="2.650682">
        <ele>264.0</ele>
        <time>2013-10-29T11:18:59Z</time>
      </trkpt>
      <trkpt lat="41.669162" lon="2.650509">
        <ele>265.8</ele>
        <time>2013-10-29T11:19:05Z</time>
      </trkpt>
      <trkpt lat="41.669116" lon="2.650433">
        <ele>267.0</ele>
        <time>2013-10-29T11:19:08Z</time>
      </trkpt>
      <trkpt lat="41.669039" lon="2.650240">
        <ele>269.2</ele>
        <time>2013-10-29T11:19:14Z</time>
      </trkpt>
      <trkpt lat="41.668940" lon="2.650097">
        <ele>270.4</ele>
        <time>2013-10-29T11:19:18Z</time>
      </trkpt>
      <trkpt lat="41.668841" lon="2.649743">
        <ele>273.6</ele>
        <time>2013-10-29T11:19:27Z</time>
      </trkpt>
      <trkpt lat="41.668818" lon="2.649718">
        <ele>274.0</ele>
        <time>2013-10-29T11:19:28Z</time>
      </trkpt>
      <trkpt lat="41.668687" lon="2.649773">
        <ele>275.8</ele>
        <time>2013-10-29T11:19:33Z</time>
      </trkpt>
      <trkpt lat="41.668531" lon="2.649882">
        <ele>277.8</ele>
        <time>2013-10-29T11:19:38Z</time>
      </trkpt>
      <trkpt lat="41.668393" lon="2.649936">
        <ele>278.8</ele>
        <time>2013-10-29T11:19:42Z</time>
      </trkpt>
      <trkpt lat="41.668264" lon="2.649946">
        <ele>280.2</ele>
        <time>2013-10-29T11:19:46Z</time>
      </trkpt>
      <trkpt lat="41.668236" lon="2.649954">
        <ele>280.6</ele>
        <time>2013-10-29T11:19:47Z</time>
      </trkpt>
      <trkpt lat="41.668047" lon="2.649960">
        <ele>282.0</ele>
        <time>2013-10-29T11:19:53Z</time>
      </trkpt>
      <trkpt lat="41.667951" lon="2.649850">
        <ele>283.4</ele>
        <time>2013-10-29T11:19:58Z</time>
      </trkpt>
      <trkpt lat="41.667859" lon="2.649695">
        <ele>284.8</ele>
        <time>2013-10-29T11:20:04Z</time>
      </trkpt>
      <trkpt lat="41.667778" lon="2.649561">
        <ele>286.2</ele>
        <time>2013-10-29T11:20:09Z</time>
      </trkpt>
      <trkpt lat="41.667700" lon="2.649391">
        <ele>288.0</ele>
        <time>2013-10-29T11:20:15Z</time>
      </trkpt>
      <trkpt lat="41.667656" lon="2.649205">
        <ele>289.6</ele>
        <time>2013-10-29T11:20:21Z</time>
      </trkpt>
      <trkpt lat="41.667598" lon="2.648939">
        <ele>292.0</ele>
        <time>2013-10-29T11:20:29Z</time>
      </trkpt>
      <trkpt lat="41.667491" lon="2.648852">
        <ele>293.4</ele>
        <time>2013-10-29T11:20:33Z</time>
      </trkpt>
      <trkpt lat="41.667310" lon="2.648792">
        <ele>294.6</ele>
        <time>2013-10-29T11:20:38Z</time>
      </trkpt>
      <trkpt lat="41.667124" lon="2.648718">
        <ele>296.2</ele>
        <time>2013-10-29T11:20:43Z</time>
      </trkpt>
      <trkpt lat="41.667065" lon="2.648520">
        <ele>296.8</ele>
        <time>2013-10-29T11:20:47Z</time>
      </trkpt>
      <trkpt lat="41.667069" lon="2.648445">
        <ele>297.2</ele>
        <time>2013-10-29T11:20:48Z</time>
      </trkpt>
      <trkpt lat="41.667112" lon="2.648238">
        <ele>298.0</ele>
        <time>2013-10-29T11:20:51Z</time>
      </trkpt>
      <trkpt lat="41.667228" lon="2.647954">
        <ele>298.8</ele>
        <time>2013-10-29T11:20:55Z</time>
      </trkpt>
      <trkpt lat="41.667283" lon="2.647831">
        <ele>299.0</ele>
        <time>2013-10-29T11:20:57Z</time>
      </trkpt>
      <trkpt lat="41.667327" lon="2.647564">
        <ele>299.8</ele>
        <time>2013-10-29T11:21:01Z</time>
      </trkpt>
      <trkpt lat="41.667355" lon="2.647419">
        <ele>300.4</ele>
        <time>2013-10-29T11:21:03Z</time>
      </trkpt>
      <trkpt lat="41.667454" lon="2.647223">
        <ele>301.0</ele>
        <time>2013-10-29T11:21:06Z</time>
      </trkpt>
      <trkpt lat="41.667571" lon="2.646862">
        <ele>301.4</ele>
        <time>2013-10-29T11:21:10Z</time>
      </trkpt>
      <trkpt lat="41.667613" lon="2.646759">
        <ele>301.6</ele>
        <time>2013-10-29T11:21:11Z</time>
      </trkpt>
      <trkpt lat="41.667804" lon="2.646562">
        <ele>301.8</ele>
        <time>2013-10-29T11:21:14Z</time>
      </trkpt>
      <trkpt lat="41.667877" lon="2.646523">
        <ele>301.8</ele>
        <time>2013-10-29T11:21:15Z</time>
      </trkpt>
      <trkpt lat="41.668026" lon="2.646464">
        <ele>302.0</ele>
        <time>2013-10-29T11:21:17Z</time>
      </trkpt>
      <trkpt lat="41.668193" lon="2.646314">
        <ele>302.0</ele>
        <time>2013-10-29T11:21:20Z</time>
      </trkpt>
      <trkpt lat="41.668084" lon="2.646085">
        <ele>302.2</ele>
        <time>2013-10-29T11:21:23Z</time>
      </trkpt>
      <trkpt lat="41.667757" lon="2.645575">
        <ele>302.2</ele>
        <time>2013-10-29T11:21:29Z</time>
      </trkpt>
      <trkpt lat="41.667749" lon="2.645364">
        <ele>302.2</ele>
        <time>2013-10-29T11:21:31Z</time>
      </trkpt>
      <trkpt lat="41.667838" lon="2.645192">
        <ele>302.4</ele>
        <time>2013-10-29T11:21:33Z</time>
      </trkpt>
      <trkpt lat="41.668048" lon="2.645106">
        <ele>302.4</ele>
        <time>2013-10-29T11:21:36Z</time>
      </trkpt>
      <trkpt lat="41.668164" lon="2.645030">
        <ele>302.4</ele>
        <time>2013-10-29T11:21:38Z</time>
      </trkpt>
      <trkpt lat="41.668284" lon="2.644922">
        <ele>302.4</ele>
        <time>2013-10-29T11:21:40Z</time>
      </trkpt>
      <trkpt lat="41.668333" lon="2.644872">
        <ele>302.4</ele>
        <time>2013-10-29T11:21:41Z</time>
      </trkpt>
      <trkpt lat="41.668474" lon="2.644669">
        <ele>302.4</ele>
        <time>2013-10-29T11:21:45Z</time>
      </trkpt>
      <trkpt lat="41.668528" lon="2.644590">
        <ele>302.4</ele>
        <time>2013-10-29T11:21:47Z</time>
      </trkpt>
      <trkpt lat="41.668606" lon="2.644473">
        <ele>302.4</ele>
        <time>2013-10-29T11:21:50Z</time>
      </trkpt>
      <trkpt lat="41.668643" lon="2.644229">
        <ele>302.4</ele>
        <time>2013-10-29T11:21:56Z</time>
      </trkpt>
      <trkpt lat="41.668559" lon="2.644075">
        <ele>302.4</ele>
        <time>2013-10-29T11:22:00Z</time>
      </trkpt>
      <trkpt lat="41.668531" lon="2.644046">
        <ele>302.4</ele>
        <time>2013-10-29T11:22:01Z</time>
      </trkpt>
      <trkpt lat="41.668349" lon="2.643901">
        <ele>302.8</ele>
        <time>2013-10-29T11:22:07Z</time>
      </trkpt>
      <trkpt lat="41.668186" lon="2.643729">
        <ele>303.6</ele>
        <time>2013-10-29T11:22:13Z</time>
      </trkpt>
      <trkpt lat="41.668086" lon="2.643523">
        <ele>304.0</ele>
        <time>2013-10-29T11:22:18Z</time>
      </trkpt>
      <trkpt lat="41.667972" lon="2.643305">
        <ele>304.2</ele>
        <time>2013-10-29T11:22:22Z</time>
      </trkpt>
      <trkpt lat="41.667932" lon="2.643251">
        <ele>304.2</ele>
        <time>2013-10-29T11:22:23Z</time>
      </trkpt>
      <trkpt lat="41.667788" lon="2.643108">
        <ele>304.2</ele>
        <time>2013-10-29T11:22:26Z</time>
      </trkpt>
      <trkpt lat="41.667677" lon="2.643039">
        <ele>304.4</ele>
        <time>2013-10-29T11:22:28Z</time>
      </trkpt>
      <trkpt lat="41.667414" lon="2.642934">
        <ele>305.0</ele>
        <time>2013-10-29T11:22:33Z</time>
      </trkpt>
      <trkpt lat="41.667221" lon="2.642881">
        <ele>305.4</ele>
        <time>2013-10-29T11:22:37Z</time>
      </trkpt>
      <trkpt lat="41.667125" lon="2.642861">
        <ele>305.6</ele>
        <time>2013-10-29T11:22:39Z</time>
      </trkpt>
      <trkpt lat="41.666891" lon="2.642693">
        <ele>306.0</ele>
        <time>2013-10-29T11:22:45Z</time>
      </trkpt>
      <trkpt lat="41.666812" lon="2.642590">
        <ele>306.4</ele>
        <time>2013-10-29T11:22:48Z</time>
      </trkpt>
      <trkpt lat="41.666638" lon="2.642377">
        <ele>307.4</ele>
        <time>2013-10-29T11:22:54Z</time>
      </trkpt>
      <trkpt lat="41.666509" lon="2.642142">
        <ele>308.2</ele>
        <time>2013-10-29T11:22:59Z</time>
      </trkpt>
      <trkpt lat="41.666480" lon="2.642094">
        <ele>308.4</ele>
        <time>2013-10-29T11:23:00Z</time>
      </trkpt>
      <trkpt lat="41.666363" lon="2.641905">
        <ele>309.2</ele>
        <time>2013-10-29T11:23:05Z</time>
      </trkpt>
      <trkpt lat="41.666345" lon="2.641865">
        <ele>309.4</ele>
        <time>2013-10-29T11:23:06Z</time>
      </trkpt>
      <trkpt lat="41.666377" lon="2.641731">
        <ele>310.2</ele>
        <time>2013-10-29T11:23:09Z</time>
      </trkpt>
      <trkpt lat="41.666479" lon="2.641688">
        <ele>311.0</ele>
        <time>2013-10-29T11:23:12Z</time>
      </trkpt>
      <trkpt lat="41.666516" lon="2.641688">
        <ele>311.2</ele>
        <time>2013-10-29T11:23:13Z</time>
      </trkpt>
      <trkpt lat="41.666723" lon="2.641694">
        <ele>312.4</ele>
        <time>2013-10-29T11:23:18Z</time>
      </trkpt>
      <trkpt lat="41.666999" lon="2.641667">
        <ele>314.4</ele>
        <time>2013-10-29T11:23:25Z</time>
      </trkpt>
      <trkpt lat="41.667102" lon="2.641662">
        <ele>315.2</ele>
        <time>2013-10-29T11:23:28Z</time>
      </trkpt>
      <trkpt lat="41.667319" lon="2.641572">
        <ele>316.8</ele>
        <time>2013-10-29T11:23:33Z</time>
      </trkpt>
      <trkpt lat="41.667441" lon="2.641445">
        <ele>317.6</ele>
        <time>2013-10-29T11:23:36Z</time>
      </trkpt>
      <trkpt lat="41.667617" lon="2.641233">
        <ele>319.4</ele>
        <time>2013-10-29T11:23:41Z</time>
      </trkpt>
      <trkpt lat="41.667646" lon="2.641201">
        <ele>319.6</ele>
        <time>2013-10-29T11:23:42Z</time>
      </trkpt>
      <trkpt lat="41.667702" lon="2.641027">
        <ele>321.2</ele>
        <time>2013-10-29T11:23:47Z</time>
      </trkpt>
      <trkpt lat="41.667678" lon="2.640873">
        <ele>322.6</ele>
        <time>2013-10-29T11:23:52Z</time>
      </trkpt>
      <trkpt lat="41.667640" lon="2.640660">
        <ele>324.8</ele>
        <time>2013-10-29T11:24:00Z</time>
      </trkpt>
      <trkpt lat="41.667621" lon="2.640448">
        <ele>327.2</ele>
        <time>2013-10-29T11:24:08Z</time>
      </trkpt>
      <trkpt lat="41.667645" lon="2.640344">
        <ele>328.4</ele>
        <time>2013-10-29T11:24:12Z</time>
      </trkpt>
      <trkpt lat="41.667639" lon="2.640182">
        <ele>330.4</ele>
        <time>2013-10-29T11:24:18Z</time>
      </trkpt>
      <trkpt lat="41.667583" lon="2.640061">
        <ele>331.8</ele>
        <time>2013-10-29T11:24:23Z</time>
      </trkpt>
      <trkpt lat="41.667495" lon="2.639947">
        <ele>333.6</ele>
        <time>2013-10-29T11:24:29Z</time>
      </trkpt>
      <trkpt lat="41.667474" lon="2.639775">
        <ele>335.4</ele>
        <time>2013-10-29T11:24:35Z</time>
      </trkpt>
      <trkpt lat="41.667540" lon="2.639634">
        <ele>336.8</ele>
        <time>2013-10-29T11:24:40Z</time>
      </trkpt>
      <trkpt lat="41.667644" lon="2.639504">
        <ele>339.0</ele>
        <time>2013-10-29T11:24:47Z</time>
      </trkpt>
      <trkpt lat="41.667688" lon="2.639349">
        <ele>341.0</ele>
        <time>2013-10-29T11:24:54Z</time>
      </trkpt>
      <trkpt lat="41.667687" lon="2.639213">
        <ele>342.8</ele>
        <time>2013-10-29T11:25:00Z</time>
      </trkpt>
      <trkpt lat="41.667602" lon="2.639070">
        <ele>344.8</ele>
        <time>2013-10-29T11:25:07Z</time>
      </trkpt>
      <trkpt lat="41.667561" lon="2.638942">
        <ele>346.2</ele>
        <time>2013-10-29T11:25:12Z</time>
      </trkpt>
      <trkpt lat="41.667653" lon="2.638834">
        <ele>347.6</ele>
        <time>2013-10-29T11:25:17Z</time>
      </trkpt>
      <trkpt lat="41.667764" lon="2.638827">
        <ele>348.6</ele>
        <time>2013-10-29T11:25:21Z</time>
      </trkpt>
      <trkpt lat="41.667946" lon="2.638791">
        <ele>350.4</ele>
        <time>2013-10-29T11:25:27Z</time>
      </trkpt>
      <trkpt lat="41.668143" lon="2.638812">
        <ele>352.6</ele>
        <time>2013-10-29T11:25:34Z</time>
      </trkpt>
      <trkpt lat="41.668308" lon="2.638911">
        <ele>354.2</ele>
        <time>2013-10-29T11:25:40Z</time>
      </trkpt>
      <trkpt lat="41.668337" lon="2.638930">
        <ele>354.6</ele>
        <time>2013-10-29T11:25:41Z</time>
      </trkpt>
      <trkpt lat="41.668476" lon="2.638989">
        <ele>356.0</ele>
        <time>2013-10-29T11:25:45Z</time>
      </trkpt>
      <trkpt lat="41.668585" lon="2.638928">
        <ele>356.6</ele>
        <time>2013-10-29T11:25:48Z</time>
      </trkpt>
      <trkpt lat="41.668670" lon="2.638723">
        <ele>358.0</ele>
        <time>2013-10-29T11:25:52Z</time>
      </trkpt>
      <trkpt lat="41.668690" lon="2.638664">
        <ele>358.2</ele>
        <time>2013-10-29T11:25:53Z</time>
      </trkpt>
      <trkpt lat="41.668711" lon="2.638603">
        <ele>358.4</ele>
        <time>2013-10-29T11:25:54Z</time>
      </trkpt>
      <trkpt lat="41.668808" lon="2.638392">
        <ele>359.2</ele>
        <time>2013-10-29T11:25:58Z</time>
      </trkpt>
      <trkpt lat="41.668865" lon="2.638246">
        <ele>360.0</ele>
        <time>2013-10-29T11:26:01Z</time>
      </trkpt>
      <trkpt lat="41.668909" lon="2.638149">
        <ele>360.4</ele>
        <time>2013-10-29T11:26:03Z</time>
      </trkpt>
      <trkpt lat="41.668986" lon="2.637948">
        <ele>361.2</ele>
        <time>2013-10-29T11:26:07Z</time>
      </trkpt>
      <trkpt lat="41.669122" lon="2.637643">
        <ele>362.6</ele>
        <time>2013-10-29T11:26:13Z</time>
      </trkpt>
      <trkpt lat="41.669144" lon="2.637599">
        <ele>362.8</ele>
        <time>2013-10-29T11:26:14Z</time>
      </trkpt>
      <trkpt lat="41.669221" lon="2.637468">
        <ele>363.4</ele>
        <time>2013-10-29T11:26:17Z</time>
      </trkpt>
      <trkpt lat="41.669384" lon="2.637389">
        <ele>364.8</ele>
        <time>2013-10-29T11:26:22Z</time>
      </trkpt>
      <trkpt lat="41.669462" lon="2.637490">
        <ele>365.8</ele>
        <time>2013-10-29T11:26:26Z</time>
      </trkpt>
      <trkpt lat="41.669478" lon="2.637513">
        <ele>366.2</ele>
        <time>2013-10-29T11:26:27Z</time>
      </trkpt>
      <trkpt lat="41.669552" lon="2.637680">
        <ele>368.2</ele>
        <time>2013-10-29T11:26:34Z</time>
      </trkpt>
      <trkpt lat="41.669618" lon="2.637858">
        <ele>370.8</ele>
        <time>2013-10-29T11:26:42Z</time>
      </trkpt>
      <trkpt lat="41.669697" lon="2.638003">
        <ele>373.6</ele>
        <time>2013-10-29T11:26:50Z</time>
      </trkpt>
      <trkpt lat="41.669798" lon="2.638138">
        <ele>376.4</ele>
        <time>2013-10-29T11:26:58Z</time>
      </trkpt>
      <trkpt lat="41.669882" lon="2.638251">
        <ele>379.0</ele>
        <time>2013-10-29T11:27:06Z</time>
      </trkpt>
      <trkpt lat="41.670006" lon="2.638392">
        <ele>381.8</ele>
        <time>2013-10-29T11:27:15Z</time>
      </trkpt>
      <trkpt lat="41.670110" lon="2.638478">
        <ele>384.4</ele>
        <time>2013-10-29T11:27:22Z</time>
      </trkpt>
      <trkpt lat="41.670215" lon="2.638561">
        <ele>386.6</ele>
        <time>2013-10-29T11:27:29Z</time>
      </trkpt>
      <trkpt lat="41.670337" lon="2.638649">
        <ele>389.0</ele>
        <time>2013-10-29T11:27:37Z</time>
      </trkpt>
      <trkpt lat="41.670422" lon="2.638724">
        <ele>390.8</ele>
        <time>2013-10-29T11:27:43Z</time>
      </trkpt>
      <trkpt lat="41.670509" lon="2.638776">
        <ele>392.4</ele>
        <time>2013-10-29T11:27:49Z</time>
      </trkpt>
      <trkpt lat="41.670607" lon="2.638842">
        <ele>394.6</ele>
        <time>2013-10-29T11:27:56Z</time>
      </trkpt>
      <trkpt lat="41.670739" lon="2.638945">
        <ele>397.6</ele>
        <time>2013-10-29T11:28:05Z</time>
      </trkpt>
      <trkpt lat="41.670857" lon="2.639069">
        <ele>400.6</ele>
        <time>2013-10-29T11:28:14Z</time>
      </trkpt>
      <trkpt lat="41.670940" lon="2.639229">
        <ele>403.2</ele>
        <time>2013-10-29T11:28:22Z</time>
      </trkpt>
      <trkpt lat="41.670927" lon="2.639384">
        <ele>405.0</ele>
        <time>2013-10-29T11:28:28Z</time>
      </trkpt>
      <trkpt lat="41.670960" lon="2.639571">
        <ele>407.6</ele>
        <time>2013-10-29T11:28:36Z</time>
      </trkpt>
      <trkpt lat="41.671004" lon="2.639729">
        <ele>410.6</ele>
        <time>2013-10-29T11:28:43Z</time>
      </trkpt>
      <trkpt lat="41.671108" lon="2.639811">
        <ele>413.8</ele>
        <time>2013-10-29T11:28:50Z</time>
      </trkpt>
      <trkpt lat="41.671206" lon="2.639756">
        <ele>416.4</ele>
        <time>2013-10-29T11:28:56Z</time>
      </trkpt>
      <trkpt lat="41.671245" lon="2.639594">
        <ele>419.2</ele>
        <time>2013-10-29T11:29:03Z</time>
      </trkpt>
      <trkpt lat="41.671264" lon="2.639409">
        <ele>421.4</ele>
        <time>2013-10-29T11:29:10Z</time>
      </trkpt>
      <trkpt lat="41.671253" lon="2.639238">
        <ele>423.2</ele>
        <time>2013-10-29T11:29:17Z</time>
      </trkpt>
      <trkpt lat="41.671252" lon="2.639029">
        <ele>425.4</ele>
        <time>2013-10-29T11:29:26Z</time>
      </trkpt>
      <trkpt lat="41.671220" lon="2.638872">
        <ele>426.8</ele>
        <time>2013-10-29T11:29:33Z</time>
      </trkpt>
      <trkpt lat="41.671129" lon="2.638736">
        <ele>428.8</ele>
        <time>2013-10-29T11:29:40Z</time>
      </trkpt>
      <trkpt lat="41.671048" lon="2.638591">
        <ele>430.4</ele>
        <time>2013-10-29T11:29:47Z</time>
      </trkpt>
      <trkpt lat="41.670975" lon="2.638406">
        <ele>432.8</ele>
        <time>2013-10-29T11:29:55Z</time>
      </trkpt>
      <trkpt lat="41.670915" lon="2.638247">
        <ele>434.8</ele>
        <time>2013-10-29T11:30:02Z</time>
      </trkpt>
      <trkpt lat="41.670829" lon="2.638104">
        <ele>436.6</ele>
        <time>2013-10-29T11:30:09Z</time>
      </trkpt>
      <trkpt lat="41.670768" lon="2.637984">
        <ele>438.6</ele>
        <time>2013-10-29T11:30:15Z</time>
      </trkpt>
      <trkpt lat="41.670725" lon="2.637861">
        <ele>439.8</ele>
        <time>2013-10-29T11:30:20Z</time>
      </trkpt>
      <trkpt lat="41.670724" lon="2.637632">
        <ele>442.6</ele>
        <time>2013-10-29T11:30:28Z</time>
      </trkpt>
      <trkpt lat="41.670707" lon="2.637399">
        <ele>445.2</ele>
        <time>2013-10-29T11:30:36Z</time>
      </trkpt>
      <trkpt lat="41.670642" lon="2.637207">
        <ele>447.6</ele>
        <time>2013-10-29T11:30:43Z</time>
      </trkpt>
      <trkpt lat="41.670611" lon="2.637000">
        <ele>449.8</ele>
        <time>2013-10-29T11:30:50Z</time>
      </trkpt>
      <trkpt lat="41.670579" lon="2.636836">
        <ele>452.0</ele>
        <time>2013-10-29T11:30:56Z</time>
      </trkpt>
      <trkpt lat="41.670498" lon="2.636617">
        <ele>454.0</ele>
        <time>2013-10-29T11:31:03Z</time>
      </trkpt>
      <trkpt lat="41.670418" lon="2.636397">
        <ele>455.8</ele>
        <time>2013-10-29T11:31:09Z</time>
      </trkpt>
      <trkpt lat="41.670326" lon="2.636242">
        <ele>457.0</ele>
        <time>2013-10-29T11:31:14Z</time>
      </trkpt>
      <trkpt lat="41.670191" lon="2.635982">
        <ele>458.8</ele>
        <time>2013-10-29T11:31:22Z</time>
      </trkpt>
      <trkpt lat="41.670097" lon="2.635797">
        <ele>460.6</ele>
        <time>2013-10-29T11:31:28Z</time>
      </trkpt>
      <trkpt lat="41.669984" lon="2.635582">
        <ele>462.4</ele>
        <time>2013-10-29T11:31:34Z</time>
      </trkpt>
      <trkpt lat="41.669855" lon="2.635391">
        <ele>464.2</ele>
        <time>2013-10-29T11:31:40Z</time>
      </trkpt>
      <trkpt lat="41.669738" lon="2.635175">
        <ele>466.0</ele>
        <time>2013-10-29T11:31:47Z</time>
      </trkpt>
      <trkpt lat="41.669675" lon="2.634937">
        <ele>467.8</ele>
        <time>2013-10-29T11:31:54Z</time>
      </trkpt>
      <trkpt lat="41.669671" lon="2.634719">
        <ele>469.8</ele>
        <time>2013-10-29T11:32:00Z</time>
      </trkpt>
      <trkpt lat="41.669638" lon="2.634510">
        <ele>471.6</ele>
        <time>2013-10-29T11:32:06Z</time>
      </trkpt>
      <trkpt lat="41.669588" lon="2.634361">
        <ele>473.0</ele>
        <time>2013-10-29T11:32:10Z</time>
      </trkpt>
      <trkpt lat="41.669556" lon="2.634297">
        <ele>473.6</ele>
        <time>2013-10-29T11:32:12Z</time>
      </trkpt>
      <trkpt lat="41.669472" lon="2.634145">
        <ele>475.6</ele>
        <time>2013-10-29T11:32:17Z</time>
      </trkpt>
      <trkpt lat="41.669447" lon="2.634074">
        <ele>476.0</ele>
        <time>2013-10-29T11:32:19Z</time>
      </trkpt>
      <trkpt lat="41.669433" lon="2.634020">
        <ele>476.8</ele>
        <time>2013-10-29T11:32:22Z</time>
      </trkpt>
      <trkpt lat="41.669433" lon="2.634021">
        <ele>477.2</ele>
        <time>2013-10-29T11:32:23Z</time>
      </trkpt>
    </trkseg>
  </trk></gpx>